ESST/TYF METAR and TAF weather

Enter ICAO airport designator
Station Type Date Time Source
ESST METAR 2018/04/23 11:20 UTC NOAA

ESST 231120Z AUTO 15009KT 9999 -RA SCT016/// BKN029/// OVC035/// 06/05 Q1001 RESHRA


Station Type Date Time Source
ESST Decoded METAR 2018/04/23 11:20 UTC NOAA

Station name not available
Apr 23, 2018 - 07:20 AM EDT / 2018.04.23 1120 UTC
Wind: from the SSE (150 degrees) at 10 MPH (9 KT):0
Visibility: greater than 7 mile(s):0
Sky conditions: overcast
Weather: light rain
Temperature: 42 F (6 C)
Dew Point: 41 F (5 C)
Relative Humidity: 93%
Pressure (altimeter): 29.56 in. Hg (1001 hPa)
ob: ESST 231120Z AUTO 15009KT 9999 -RA SCT016/// BKN029/// OVC035/// 06/05 Q1001 RESHRA
cycle: 11

Station Type Date Time Source
ESST TAF UTC NOAA

Error!


Example: see airport list